createdAt,value
2018-07-03T00:01:11.854Z,64.10
2018-07-03T00:03:40.147Z,65.80
2018-07-03T00:06:08.424Z,64.90
2018-07-03T00:08:36.674Z,64.10
2018-07-03T00:11:04.957Z,61.50
2018-07-03T00:13:33.238Z,63.10
2018-07-03T00:16:01.519Z,62.20
2018-07-03T00:18:29.019Z,62.10
2018-07-03T00:20:57.321Z,61.60
2018-07-03T00:23:25.578Z,64.00
2018-07-03T00:25:53.880Z,62.80
2018-07-03T00:28:22.164Z,65.00
2018-07-03T00:30:51.700Z,64.20
2018-07-03T00:33:20.580Z,65.60
2018-07-03T00:35:48.865Z,67.20
2018-07-03T00:38:18.128Z,65.80
2018-07-03T00:40:46.881Z,66.20
2018-07-03T00:43:15.132Z,69.20
2018-07-03T00:45:43.409Z,69.00
2018-07-03T00:48:11.679Z,67.30
2018-07-03T00:50:39.978Z,69.20
2018-07-03T00:53:08.233Z,71.90
2018-07-03T00:55:36.525Z,68.90
2018-07-03T00:58:04.773Z,71.00
2018-07-03T01:00:33.051Z,71.10
2018-07-03T01:03:01.316Z,72.40
2018-07-03T01:05:29.617Z,74.50
2018-07-03T01:07:57.863Z,74.50
2018-07-03T01:10:26.129Z,74.50
2018-07-03T01:12:54.441Z,73.80
2018-07-03T01:15:22.737Z,73.10
2018-07-03T01:17:51.011Z,76.50
2018-07-03T01:20:19.817Z,75.20
2018-07-03T01:22:50.366Z,77.10
2018-07-03T01:25:19.447Z,75.70
2018-07-03T01:27:49.524Z,75.00
2018-07-03T01:30:19.992Z,77.30
2018-07-03T01:32:50.133Z,76.00
2018-07-03T01:35:20.699Z,76.90
2018-07-03T01:37:49.231Z,78.90
2018-07-03T01:40:17.520Z,78.60
2018-07-03T01:42:45.785Z,77.30
2018-07-03T01:45:14.063Z,77.70
2018-07-03T01:47:42.329Z,79.10
2018-07-03T01:50:10.626Z,80.80
2018-07-03T01:52:38.151Z,80.80
2018-07-03T01:55:06.419Z,80.50
2018-07-03T01:57:34.716Z,81.30
2018-07-03T02:00:02.981Z,82.30
2018-07-03T02:02:31.277Z,83.00
2018-07-03T02:04:59.528Z,85.30
2018-07-03T02:07:27.837Z,85.80
2018-07-03T02:09:56.151Z,85.90
2018-07-03T02:12:24.406Z,84.30
2018-07-03T02:14:52.706Z,85.20
2018-07-03T02:17:20.956Z,87.10
2018-07-03T02:19:50.511Z,87.60
2018-07-03T02:22:19.465Z,88.50
2018-07-03T02:24:48.980Z,87.30
2018-07-03T02:27:18.176Z,89.60
2018-07-03T02:29:46.925Z,88.80
2018-07-03T02:32:15.213Z,90.10
2018-07-03T02:34:47.241Z,90.60
2018-07-03T02:37:15.558Z,90.50
2018-07-03T02:39:43.829Z,90.60
2018-07-03T02:42:12.098Z,90.90
2018-07-03T02:44:43.737Z,90.90
2018-07-03T02:47:12.029Z,91.00
2018-07-03T02:49:40.311Z,91.40
2018-07-03T02:52:08.640Z,91.80
2018-07-03T02:54:40.034Z,91.60
2018-07-03T02:57:08.376Z,93.20
2018-07-03T02:59:36.645Z,92.50
2018-07-03T03:02:04.946Z,92.70
2018-07-03T03:04:34.147Z,93.30
2018-07-03T03:07:02.472Z,93.40
2018-07-03T03:09:30.747Z,94.30
2018-07-03T03:11:59.045Z,93.90
2018-07-03T03:14:27.308Z,93.90
2018-07-03T03:16:55.616Z,93.50
2018-07-03T03:19:23.104Z,93.50
2018-07-03T03:21:51.895Z,94.00
2018-07-03T03:24:21.325Z,95.60
2018-07-03T03:26:50.063Z,95.60
2018-07-03T03:29:20.301Z,95.60
2018-07-03T03:31:50.042Z,95.70
2018-07-03T03:34:20.345Z,95.80
2018-07-03T03:36:49.282Z,97.20
2018-07-03T03:39:17.542Z,97.40
2018-07-03T03:41:45.841Z,97.00
2018-07-03T03:44:14.096Z,96.70
2018-07-03T03:46:42.353Z,98.10
2018-07-03T03:49:10.639Z,98.60
2018-07-03T03:51:38.924Z,98.70
2018-07-03T03:54:07.191Z,99.30
2018-07-03T03:56:35.492Z,99.70
2018-07-03T03:59:03.742Z,99.90
2018-07-03T04:01:32.036Z,99.10
2018-07-03T04:04:00.301Z,99.60
2018-07-03T04:06:28.594Z,99.80
2018-07-03T04:08:56.869Z,99.90
2018-07-03T04:11:25.170Z,99.90
2018-07-03T04:13:53.453Z,99.90
2018-07-03T04:16:20.956Z,99.90
2018-07-03T04:18:50.477Z,99.90
2018-07-03T04:21:19.537Z,99.90
2018-07-03T04:23:50.257Z,99.90
2018-07-03T04:26:19.747Z,99.90
2018-07-03T04:28:50.279Z,99.90
2018-07-03T04:31:20.137Z,99.90
2018-07-03T04:33:49.806Z,99.90
2018-07-03T04:36:19.817Z,99.90
2018-07-03T04:38:50.055Z,99.90
2018-07-03T04:41:20.644Z,99.90
2018-07-03T04:43:48.929Z,99.90
2018-07-03T04:46:17.744Z,99.90
2018-07-03T04:48:45.996Z,99.90
2018-07-03T04:51:14.294Z,99.90
2018-07-03T04:53:42.548Z,99.90
2018-07-03T04:56:10.083Z,99.90
2018-07-03T04:58:38.373Z,99.90
2018-07-03T05:01:21.895Z,99.90
2018-07-03T05:03:50.436Z,99.90
2018-07-03T05:06:20.534Z,99.90
2018-07-03T05:08:48.851Z,99.90
2018-07-03T05:11:17.122Z,99.90
2018-07-03T05:13:45.420Z,99.90
2018-07-03T05:16:14.657Z,99.90
2018-07-03T05:18:42.966Z,99.90
2018-07-03T05:21:14.654Z,99.90
2018-07-03T05:23:42.965Z,99.90
2018-07-03T05:26:10.461Z,99.90
2018-07-03T05:28:38.759Z,99.90
2018-07-03T05:31:07.030Z,99.90
2018-07-03T05:33:35.328Z,99.90
2018-07-03T05:36:03.594Z,99.90
2018-07-03T05:38:31.866Z,99.90
2018-07-03T05:41:00.160Z,99.90
2018-07-03T05:43:28.584Z,99.90
2018-07-03T05:45:57.414Z,99.90
2018-07-03T05:48:25.707Z,99.90
2018-07-03T05:50:57.456Z,99.90
2018-07-03T05:53:25.750Z,99.90
2018-07-03T05:55:54.035Z,99.90
2018-07-03T05:58:22.338Z,99.90
2018-07-03T06:00:51.422Z,99.90
2018-07-03T06:03:20.764Z,99.90
2018-07-03T06:05:50.496Z,99.90
2018-07-03T06:08:19.361Z,99.90
2018-07-03T06:10:52.637Z,99.90
2018-07-03T06:13:20.907Z,99.90
2018-07-03T06:15:50.397Z,99.90
2018-07-03T06:18:19.449Z,99.90
2018-07-03T06:20:47.968Z,99.90
2018-07-03T06:23:15.276Z,99.90
2018-07-03T06:25:43.555Z,99.90
2018-07-03T06:28:11.833Z,99.90
2018-07-03T06:30:40.115Z,99.90
2018-07-03T06:33:08.419Z,99.90
2018-07-03T06:35:36.700Z,99.90
2018-07-03T06:38:05.015Z,99.90
2018-07-03T06:40:33.281Z,99.90
2018-07-03T06:43:01.597Z,99.90
2018-07-03T06:45:29.870Z,99.90
2018-07-03T06:47:59.403Z,99.90
2018-07-03T06:50:28.748Z,99.90
2018-07-03T06:52:58.358Z,99.90
2018-07-03T06:55:27.657Z,99.90
2018-07-03T06:57:56.021Z,99.90
2018-07-03T07:00:24.254Z,99.90
2018-07-03T07:02:56.095Z,99.90
2018-07-03T07:05:24.397Z,99.90
2018-07-03T07:07:52.657Z,99.40
2018-07-03T07:10:21.990Z,98.30
2018-07-03T07:13:00.267Z,97.30
2018-07-03T07:15:29.477Z,96.80
2018-07-03T07:17:57.754Z,97.10
2018-07-03T07:20:26.065Z,96.70
2018-07-03T07:22:54.336Z,97.60
2018-07-03T07:25:22.608Z,96.10
2018-07-03T07:27:51.132Z,96.10
2018-07-03T07:30:19.412Z,96.30
2018-07-03T07:32:50.911Z,96.00
2018-07-03T07:35:19.975Z,95.70
2018-07-03T07:37:50.280Z,93.90
2018-07-03T07:40:18.563Z,93.60
2018-07-03T07:42:51.493Z,92.30
2018-07-03T07:45:20.745Z,91.50
2018-07-03T07:47:54.101Z,91.60
2018-07-03T07:50:22.341Z,85.90
2018-07-03T07:52:51.970Z,87.60
2018-07-03T07:55:20.239Z,86.70
2018-07-03T07:57:48.551Z,89.70
2018-07-03T08:00:16.833Z,87.60
2018-07-03T08:02:48.469Z,85.20
2018-07-03T08:05:16.723Z,83.70
2018-07-03T08:07:45.015Z,75.40
2018-07-03T08:10:13.290Z,81.60
2018-07-03T08:12:41.576Z,82.00
2018-07-03T08:15:09.840Z,78.70
2018-07-03T08:17:38.135Z,79.40
2018-07-03T08:20:06.432Z,81.20
2018-07-03T08:22:34.706Z,78.00
2018-07-03T08:25:02.972Z,78.30
2018-07-03T08:27:31.272Z,74.10
2018-07-03T08:29:59.569Z,71.60
2018-07-03T08:32:28.916Z,67.90
2018-07-03T08:34:58.415Z,73.70
2018-07-03T08:37:27.178Z,72.80
2018-07-03T08:39:55.477Z,69.40
2018-07-03T08:42:23.761Z,70.80
2018-07-03T08:44:52.065Z,71.00
2018-07-03T08:47:30.165Z,69.20
2018-07-03T08:49:59.655Z,71.50
2018-07-03T08:52:36.274Z,73.10
2018-07-03T08:55:04.615Z,65.60
2018-07-03T08:57:33.806Z,65.10
2018-07-03T09:00:02.071Z,60.80
2018-07-03T09:02:30.370Z,64.30
2018-07-03T09:04:59.661Z,63.10
2018-07-03T09:07:29.036Z,65.90
2018-07-03T09:09:58.014Z,63.50
2018-07-03T09:12:29.202Z,61.90
2018-07-03T09:14:58.335Z,66.10
2018-07-03T09:17:30.276Z,61.10
2018-07-03T09:19:59.299Z,61.50
2018-07-03T09:22:27.193Z,61.50
2018-07-03T09:24:54.728Z,58.90
2018-07-03T09:27:22.992Z,55.50
2018-07-03T09:29:52.441Z,53.70
2018-07-03T09:32:21.869Z,54.50
2018-07-03T09:34:51.047Z,58.40
2018-07-03T09:37:23.593Z,56.00
2018-07-03T09:39:52.259Z,57.80
2018-07-03T09:42:21.503Z,57.30
2018-07-03T09:44:50.861Z,58.50
2018-07-03T09:47:21.458Z,56.70
2018-07-03T09:49:50.811Z,55.70
2018-07-03T09:52:19.091Z,55.70
2018-07-03T09:54:47.456Z,56.90
2018-07-03T09:57:19.094Z,53.30
2018-07-03T09:59:48.394Z,53.00
2018-07-03T10:02:16.687Z,55.20
2018-07-03T10:04:44.193Z,55.20
2018-07-03T10:07:13.449Z,56.60
2018-07-03T10:09:41.745Z,51.40
2018-07-03T10:12:10.031Z,51.30
2018-07-03T10:14:38.327Z,51.10
2018-07-03T10:17:06.580Z,50.50
2018-07-03T10:19:34.884Z,53.10
2018-07-03T10:22:03.193Z,54.70
2018-07-03T10:24:31.441Z,54.30
2018-07-03T10:26:59.722Z,52.90
2018-07-03T10:29:29.226Z,54.80
2018-07-03T10:31:58.386Z,53.70
2018-07-03T10:34:27.380Z,53.00
2018-07-03T10:37:02.565Z,50.80
2018-07-03T10:39:30.827Z,49.80
2018-07-03T10:41:59.093Z,51.30
2018-07-03T10:44:27.933Z,51.30
2018-07-03T10:46:56.204Z,52.60
2018-07-03T10:49:24.512Z,54.70
2018-07-03T10:51:52.802Z,52.90
2018-07-03T10:54:22.297Z,50.40
2018-07-03T10:56:51.552Z,48.40
2018-07-03T10:59:21.125Z,50.50
2018-07-03T11:01:49.415Z,53.30
2018-07-03T11:04:25.298Z,49.70
2018-07-03T11:06:53.582Z,53.10
2018-07-03T11:09:21.863Z,49.20
2018-07-03T11:11:51.160Z,48.70
2018-07-03T11:14:19.455Z,48.10
2018-07-03T11:16:47.717Z,49.40
2018-07-03T11:19:19.783Z,46.60
2018-07-03T11:21:48.063Z,50.70
2018-07-03T11:24:20.389Z,47.90
2018-07-03T11:26:48.647Z,50.10
2018-07-03T11:29:16.905Z,49.60
2018-07-03T11:31:45.206Z,48.10
2018-07-03T11:34:13.474Z,48.60
2018-07-03T11:36:41.737Z,48.50
2018-07-03T11:39:17.351Z,48.60
2018-07-03T11:41:45.648Z,47.60
2018-07-03T11:44:14.924Z,48.40
2018-07-03T11:46:43.183Z,49.80
2018-07-03T11:49:11.486Z,45.70
2018-07-03T11:51:39.751Z,47.30
2018-07-03T11:54:11.034Z,46.70
2018-07-03T11:56:39.335Z,45.40
2018-07-03T11:59:07.599Z,45.00
2018-07-03T12:01:35.876Z,45.10
2018-07-03T12:04:05.156Z,47.50
2018-07-03T12:06:33.418Z,50.60
2018-07-03T12:09:01.739Z,46.70
2018-07-03T12:11:36.257Z,46.20
2018-07-03T12:14:04.546Z,49.30
2018-07-03T12:16:40.254Z,45.90
2018-07-03T12:19:08.541Z,47.70
2018-07-03T12:21:36.802Z,47.80
2018-07-03T12:24:05.080Z,46.60
2018-07-03T12:26:33.351Z,48.90
2018-07-03T12:29:01.699Z,45.90
2018-07-03T12:31:30.828Z,44.90
2018-07-03T12:33:59.131Z,44.50
2018-07-03T12:36:28.216Z,45.30
2018-07-03T12:38:57.245Z,46.00
2018-07-03T12:41:25.538Z,47.00
2018-07-03T12:43:53.812Z,46.80
2018-07-03T12:46:22.417Z,46.70
2018-07-03T12:48:51.844Z,44.00
2018-07-03T12:51:21.022Z,43.10
2018-07-03T12:53:50.181Z,43.90
2018-07-03T12:56:18.465Z,43.80
2018-07-03T12:58:46.774Z,45.20
2018-07-03T13:01:15.038Z,45.20
2018-07-03T13:03:43.293Z,47.70
2018-07-03T13:06:11.589Z,44.50
2018-07-03T13:08:39.888Z,45.90
2018-07-03T13:11:08.169Z,46.50
2018-07-03T13:13:36.439Z,46.00
2018-07-03T13:16:07.725Z,46.00
2018-07-03T13:18:36.027Z,42.10
2018-07-03T13:21:04.327Z,41.10
2018-07-03T13:23:32.613Z,43.20
2018-07-03T13:26:01.859Z,44.30
2018-07-03T13:28:31.375Z,42.10
2018-07-03T13:31:01.129Z,44.80
2018-07-03T13:33:29.401Z,44.70
2018-07-03T13:35:57.704Z,45.00
2018-07-03T13:38:25.961Z,42.20
2018-07-03T13:40:54.278Z,41.20
2018-07-03T13:43:22.572Z,42.90
2018-07-03T13:45:52.804Z,44.20
2018-07-03T13:48:22.632Z,43.40
2018-07-03T13:50:50.830Z,41.60
2018-07-03T13:53:19.109Z,41.50
2018-07-03T13:55:47.405Z,44.40
2018-07-03T13:58:15.669Z,42.60
2018-07-03T14:00:43.972Z,44.50
2018-07-03T14:03:12.226Z,41.60
2018-07-03T14:05:40.517Z,41.70
2018-07-03T14:08:08.772Z,43.30
2018-07-03T14:10:37.070Z,42.20
2018-07-03T14:13:05.323Z,42.30
2018-07-03T14:15:33.615Z,41.70
2018-07-03T14:18:01.881Z,42.10
2018-07-03T14:20:31.437Z,44.20
2018-07-03T14:23:01.146Z,41.50
2018-07-03T14:25:29.400Z,42.50
2018-07-03T14:27:57.690Z,42.70
2018-07-03T14:30:25.950Z,41.10
2018-07-03T14:32:54.246Z,43.00
2018-07-03T14:35:22.543Z,43.90
2018-07-03T14:37:51.140Z,41.50
2018-07-03T14:40:20.954Z,43.50
2018-07-03T14:42:49.278Z,44.90
2018-07-03T14:45:17.538Z,46.40
2018-07-03T14:47:45.844Z,42.60
2018-07-03T14:50:14.110Z,43.20
2018-07-03T14:52:42.415Z,41.80
2018-07-03T14:55:11.712Z,43.50
2018-07-03T14:57:40.089Z,44.70
2018-07-03T15:00:09.346Z,42.50
2018-07-03T15:02:37.610Z,42.20
2018-07-03T15:05:05.905Z,41.70
2018-07-03T15:07:34.186Z,43.10
2018-07-03T15:10:02.444Z,42.10
2018-07-03T15:12:30.717Z,41.60
2018-07-03T15:14:58.279Z,41.60
2018-07-03T15:17:26.522Z,41.30
2018-07-03T15:19:54.791Z,41.60
2018-07-03T15:22:23.094Z,41.10
2018-07-03T15:24:51.959Z,40.40
2018-07-03T15:27:21.590Z,43.30
2018-07-03T15:29:50.133Z,41.60
2018-07-03T15:32:18.444Z,40.80
2018-07-03T15:34:46.713Z,43.00
2018-07-03T15:37:15.006Z,42.40
2018-07-03T15:39:43.301Z,42.90
2018-07-03T15:42:11.570Z,42.30
2018-07-03T15:45:05.920Z,42.30
2018-07-03T15:47:34.222Z,40.80
2018-07-03T15:50:03.501Z,41.30
2018-07-03T15:52:31.757Z,41.50
2018-07-03T15:55:01.425Z,41.70
2018-07-03T15:57:29.894Z,41.70
2018-07-03T15:59:58.176Z,45.20
2018-07-03T16:02:26.439Z,45.60
2018-07-03T16:04:54.741Z,41.90
2018-07-03T16:07:38.786Z,42.20
2018-07-03T16:10:07.996Z,41.20
2018-07-03T16:12:36.275Z,42.80
2018-07-03T16:15:04.589Z,43.80
2018-07-03T16:17:32.867Z,41.30
2018-07-03T16:20:16.057Z,43.50
2018-07-03T16:22:44.324Z,43.20
2018-07-03T16:25:12.663Z,42.10
2018-07-03T16:27:40.889Z,41.30
2018-07-03T16:30:09.158Z,42.40
2018-07-03T16:32:37.460Z,43.20
2018-07-03T16:35:05.733Z,41.70
2018-07-03T16:37:33.257Z,41.70
2018-07-03T16:40:01.527Z,45.20
2018-07-03T16:42:30.500Z,43.30
2018-07-03T16:44:59.826Z,44.20
2018-07-03T16:47:28.129Z,43.20
2018-07-03T16:49:56.441Z,43.40
2018-07-03T16:52:25.672Z,42.70
2018-07-03T16:54:53.995Z,43.50
2018-07-03T16:57:25.815Z,43.00
2018-07-03T16:59:54.106Z,43.40
2018-07-03T17:02:22.366Z,44.00
2018-07-03T17:04:51.685Z,43.50
2018-07-03T17:07:19.168Z,43.50
2018-07-03T17:09:47.451Z,45.30
2018-07-03T17:12:17.658Z,43.20
2018-07-03T17:14:45.949Z,43.00
2018-07-03T17:17:14.400Z,43.00
2018-07-03T17:19:42.740Z,44.80
2018-07-03T17:22:10.982Z,44.30
2018-07-03T17:24:39.291Z,43.60
2018-07-03T17:27:07.591Z,43.90
2018-07-03T17:29:36.105Z,44.40
2018-07-03T17:32:04.369Z,43.30
2018-07-03T17:34:32.654Z,43.40
2018-07-03T17:37:02.819Z,42.90
2018-07-03T17:39:31.116Z,43.10
2018-07-03T17:42:21.816Z,44.90
2018-07-03T17:57:38.475Z,43.60
2018-07-03T18:00:06.770Z,46.40
2018-07-03T18:02:35.034Z,45.60
2018-07-03T18:05:03.339Z,46.90
2018-07-03T18:07:32.615Z,46.40
2018-07-03T18:10:00.889Z,45.60
2018-07-03T18:12:29.809Z,45.90
2018-07-03T18:14:58.065Z,47.30
2018-07-03T18:17:26.350Z,45.30
2018-07-03T18:19:55.615Z,47.20
2018-07-03T18:22:23.949Z,49.10
2018-07-03T18:24:52.465Z,48.20
2018-07-03T18:27:20.828Z,50.60
2018-07-03T18:29:49.070Z,48.10
2018-07-03T18:32:17.331Z,49.50
2018-07-03T18:34:45.711Z,49.10
2018-07-03T18:37:13.943Z,49.50
2018-07-03T18:39:42.201Z,50.90
2018-07-03T18:42:10.500Z,47.70
2018-07-03T18:44:38.770Z,50.80
2018-07-03T18:47:07.069Z,47.60
2018-07-03T18:49:35.347Z,47.40
2018-07-03T18:52:03.616Z,47.90
2018-07-03T18:54:32.847Z,50.80
2018-07-03T18:57:01.511Z,47.40
2018-07-03T18:59:30.717Z,54.70
2018-07-03T19:02:00.161Z,48.70
2018-07-03T19:04:29.069Z,51.30
2018-07-03T19:06:57.353Z,53.70
2018-07-03T19:09:25.600Z,52.20
2018-07-03T19:11:53.893Z,53.90
2018-07-03T19:14:23.447Z,54.60
2018-07-03T19:16:52.381Z,60.90
2018-07-03T19:19:20.633Z,62.30
2018-07-03T19:21:48.894Z,63.10
2018-07-03T19:24:17.175Z,63.10
2018-07-03T19:26:45.433Z,63.10
2018-07-03T19:29:14.691Z,63.10
2018-07-03T19:31:42.949Z,62.80
2018-07-03T19:34:11.233Z,62.20
2018-07-03T19:36:39.485Z,62.50
2018-07-03T19:39:07.739Z,61.20
2018-07-03T19:41:36.022Z,61.60
2018-07-03T19:44:04.315Z,57.80
2018-07-03T19:46:32.584Z,59.20
2018-07-03T19:49:00.916Z,61.30
2018-07-03T19:51:30.428Z,62.70
2018-07-03T19:53:59.094Z,62.40
2018-07-03T19:56:27.437Z,62.80
2018-07-03T19:58:55.695Z,64.50
2018-07-03T20:01:30.749Z,63.50
2018-07-03T20:03:59.169Z,65.00
2018-07-03T20:06:27.424Z,63.30
2018-07-03T20:08:55.703Z,64.90
2018-07-03T20:11:23.989Z,64.70
2018-07-03T20:13:52.325Z,64.60
2018-07-03T20:16:21.515Z,66.30
2018-07-03T20:18:49.833Z,65.40
2018-07-03T20:21:18.085Z,65.60
2018-07-03T20:23:46.386Z,66.10
2018-07-03T20:26:14.636Z,67.20
2018-07-03T20:28:42.921Z,66.30
2018-07-03T20:31:11.187Z,66.50
2018-07-03T20:33:39.479Z,65.70
2018-07-03T20:36:07.791Z,66.70
2018-07-03T20:38:35.298Z,66.80
2018-07-03T20:41:03.592Z,68.60
2018-07-03T20:43:31.845Z,68.80
2018-07-03T20:46:00.565Z,69.70
2018-07-03T20:48:29.491Z,69.60
2018-07-03T20:50:57.823Z,68.20
2018-07-03T20:53:25.321Z,68.20
2018-07-03T20:55:53.682Z,66.60
2018-07-03T20:58:21.936Z,67.40
2018-07-03T21:00:50.805Z,68.50
2018-07-03T21:03:19.070Z,68.90
2018-07-03T21:05:47.454Z,68.80
2018-07-03T21:08:15.663Z,66.40
2018-07-03T21:10:43.976Z,67.40
2018-07-03T21:13:12.243Z,65.60
2018-07-03T21:15:40.530Z,67.50
2018-07-03T21:18:08.816Z,67.40
2018-07-03T21:20:37.069Z,65.90
2018-07-03T21:23:05.367Z,66.80
2018-07-03T21:25:33.633Z,65.10
2018-07-03T21:28:01.914Z,68.30
2018-07-03T21:30:30.816Z,66.90
2018-07-03T21:32:59.148Z,65.60
2018-07-03T21:35:27.417Z,66.40
2018-07-03T21:37:55.730Z,65.70
2018-07-03T21:40:24.035Z,65.40
2018-07-03T21:42:52.164Z,65.20
2018-07-03T21:45:21.663Z,67.30
2018-07-03T21:47:50.546Z,68.10
2018-07-03T21:50:18.804Z,70.20
2018-07-03T21:52:47.102Z,71.10
2018-07-03T21:55:15.398Z,71.00
2018-07-03T21:57:43.663Z,71.80
2018-07-03T22:00:11.950Z,72.40
2018-07-03T22:02:40.252Z,73.00
2018-07-03T22:05:08.553Z,73.10
2018-07-03T22:07:36.813Z,73.60
2018-07-03T22:10:05.111Z,73.70
2018-07-03T22:12:33.420Z,74.80
2018-07-03T22:15:01.676Z,75.40
2018-07-03T22:17:29.907Z,75.40
2018-07-03T22:19:58.189Z,76.80
2018-07-03T22:22:26.501Z,76.70
2018-07-03T22:24:54.805Z,76.60
2018-07-03T22:27:23.058Z,75.50
2018-07-03T22:29:51.881Z,77.10
2018-07-03T22:32:20.690Z,78.40
2018-07-03T22:34:48.956Z,77.90
2018-07-03T22:37:17.245Z,78.40
2018-07-03T22:39:45.517Z,78.20
2018-07-03T22:42:13.805Z,78.70
2018-07-03T22:44:42.066Z,79.90
2018-07-03T22:47:10.365Z,79.00
2018-07-03T22:49:38.617Z,79.70
2018-07-03T22:52:06.874Z,79.30
2018-07-03T22:54:35.156Z,79.70
2018-07-03T22:57:03.414Z,81.10
2018-07-03T22:59:31.709Z,82.20
2018-07-03T23:02:01.282Z,82.90
2018-07-03T23:04:30.451Z,82.40
2018-07-03T23:07:01.756Z,83.50
2018-07-03T23:09:30.861Z,83.90
2018-07-03T23:11:59.179Z,84.50
2018-07-03T23:14:26.718Z,84.50
2018-07-03T23:16:54.994Z,86.40
2018-07-03T23:19:23.294Z,87.40
2018-07-03T23:21:57.567Z,87.10
2018-07-03T23:24:25.877Z,87.90
2018-07-03T23:26:54.148Z,89.10
2018-07-03T23:29:22.414Z,90.10
2018-07-03T23:31:50.696Z,91.00
2018-07-03T23:34:19.007Z,91.20
2018-07-03T23:36:47.275Z,91.20
2018-07-03T23:39:15.545Z,91.80
2018-07-03T23:41:43.835Z,92.60
2018-07-03T23:44:12.099Z,93.60
2018-07-03T23:46:52.570Z,93.50
2018-07-03T23:49:32.550Z,94.30
2018-07-03T23:52:12.801Z,94.60
2018-07-03T23:54:52.927Z,95.30
2018-07-03T23:57:32.913Z,95.60
